createdAt,value
2019-01-08T00:00:49.396Z,80.10
2019-01-08T00:03:16.692Z,81.50
2019-01-08T00:05:44.067Z,81.90
2019-01-08T00:08:11.450Z,80.30
2019-01-08T00:10:39.079Z,81.10
2019-01-08T00:13:06.495Z,81.30
2019-01-08T00:15:33.966Z,82.30
2019-01-08T00:18:01.286Z,82.20
2019-01-08T00:20:28.586Z,81.80
2019-01-08T00:22:55.895Z,83.10
2019-01-08T00:25:23.281Z,82.70
2019-01-08T00:27:50.718Z,83.60
2019-01-08T00:30:18.037Z,80.80
2019-01-08T00:32:45.438Z,82.20
2019-01-08T00:35:13.049Z,85.10
2019-01-08T00:37:40.490Z,83.90
2019-01-08T00:40:07.905Z,85.10
2019-01-08T00:42:35.205Z,85.10
2019-01-08T00:45:02.886Z,85.50
2019-01-08T00:47:30.558Z,82.10
2019-01-08T00:49:57.885Z,82.30
2019-01-08T00:52:25.260Z,82.30
2019-01-08T00:54:52.549Z,81.80
2019-01-08T00:57:19.844Z,81.10
2019-01-08T00:59:47.143Z,82.00
2019-01-08T01:02:14.451Z,82.30
2019-01-08T01:04:41.844Z,85.10
2019-01-08T01:07:09.570Z,83.80
2019-01-08T01:09:36.980Z,84.10
2019-01-08T01:12:04.261Z,85.40
2019-01-08T01:14:31.567Z,86.50
2019-01-08T01:16:59.194Z,83.30
2019-01-08T01:19:26.509Z,85.00
2019-01-08T01:21:53.915Z,86.50
2019-01-08T01:24:21.220Z,86.20
2019-01-08T01:26:48.621Z,86.80
2019-01-08T01:29:16.325Z,85.50
2019-01-08T01:31:43.748Z,87.80
2019-01-08T01:34:11.035Z,88.30
2019-01-08T01:36:38.448Z,86.20
2019-01-08T01:39:06.007Z,87.60
2019-01-08T01:41:33.334Z,87.40
2019-01-08T01:44:00.676Z,88.50
2019-01-08T01:46:28.283Z,87.40
2019-01-08T01:48:55.670Z,86.60
2019-01-08T01:51:23.176Z,85.90
2019-01-08T01:53:50.527Z,85.80
2019-01-08T01:56:17.927Z,86.90
2019-01-08T01:58:45.466Z,85.60
2019-01-08T02:01:12.817Z,87.70
2019-01-08T02:03:40.464Z,87.90
2019-01-08T02:06:08.150Z,86.90
2019-01-08T02:08:35.558Z,86.80
2019-01-08T02:11:02.924Z,87.00
2019-01-08T02:13:30.226Z,86.20
2019-01-08T02:15:57.527Z,90.20
2019-01-08T02:18:24.843Z,87.80
2019-01-08T02:20:52.242Z,87.10
2019-01-08T02:23:19.669Z,87.30
2019-01-08T02:25:46.985Z,88.40
2019-01-08T02:28:14.409Z,87.40
2019-01-08T02:30:41.734Z,87.80
2019-01-08T02:33:09.144Z,88.10
2019-01-08T02:35:36.541Z,90.20
2019-01-08T02:38:03.854Z,87.40
2019-01-08T02:40:31.309Z,89.20
2019-01-08T02:42:58.673Z,88.50
2019-01-08T02:45:25.963Z,89.00
2019-01-08T02:47:53.377Z,88.70
2019-01-08T02:50:20.729Z,91.10
2019-01-08T02:52:48.074Z,90.00
2019-01-08T02:55:15.434Z,89.80
2019-01-08T02:57:42.837Z,90.60
2019-01-08T03:00:10.573Z,90.10
2019-01-08T03:02:37.945Z,89.90
2019-01-08T03:05:05.355Z,89.80
2019-01-08T03:07:32.755Z,89.10
2019-01-08T03:10:00.186Z,89.20
2019-01-08T03:12:27.483Z,90.50
2019-01-08T03:14:54.769Z,87.40
2019-01-08T03:17:22.078Z,91.10
2019-01-08T03:19:49.336Z,89.50
2019-01-08T03:22:16.534Z,90.70
2019-01-08T03:24:43.846Z,90.90
2019-01-08T03:27:11.233Z,90.40
2019-01-08T03:29:38.620Z,89.80
2019-01-08T03:32:05.914Z,89.80
2019-01-08T03:34:33.209Z,91.20
2019-01-08T03:37:00.507Z,90.60
2019-01-08T03:39:27.775Z,90.00
2019-01-08T03:41:55.088Z,91.90
2019-01-08T03:44:22.486Z,92.50
2019-01-08T03:46:49.873Z,91.50
2019-01-08T03:49:17.306Z,93.40
2019-01-08T03:51:44.758Z,93.30
2019-01-08T03:54:12.054Z,94.40
2019-01-08T03:56:39.477Z,93.80
2019-01-08T03:59:06.847Z,91.80
2019-01-08T04:01:34.116Z,91.50
2019-01-08T04:04:01.417Z,93.20
2019-01-08T04:06:29.080Z,92.10
2019-01-08T04:08:56.521Z,91.40
2019-01-08T04:11:24.177Z,92.50
2019-01-08T04:13:51.507Z,92.10
2019-01-08T04:16:18.881Z,96.10
2019-01-08T04:18:46.217Z,93.70
2019-01-08T04:21:13.902Z,95.20
2019-01-08T04:23:41.213Z,95.60
2019-01-08T04:26:08.706Z,93.20
2019-01-08T04:28:36.077Z,92.40
2019-01-08T04:31:03.451Z,89.80
2019-01-08T04:33:30.836Z,91.40
2019-01-08T04:35:58.125Z,91.60
2019-01-08T04:38:25.430Z,93.70
2019-01-08T04:40:52.780Z,94.50
2019-01-08T04:43:20.083Z,91.20
2019-01-08T04:45:47.400Z,95.30
2019-01-08T04:48:14.880Z,95.90
2019-01-08T04:50:42.307Z,96.30
2019-01-08T04:53:09.713Z,97.40
2019-01-08T04:55:37.109Z,95.90
2019-01-08T04:58:04.416Z,96.90
2019-01-08T05:00:31.818Z,97.40
2019-01-08T05:02:59.198Z,97.20
2019-01-08T05:05:26.866Z,95.90
2019-01-08T05:07:54.210Z,97.40
2019-01-08T05:10:21.567Z,97.40
2019-01-08T05:12:48.879Z,97.40
2019-01-08T05:15:16.280Z,96.60
2019-01-08T05:17:43.558Z,97.40
2019-01-08T05:20:10.952Z,97.40
2019-01-08T05:22:38.498Z,97.40
2019-01-08T05:25:05.875Z,97.40
2019-01-08T05:27:33.252Z,96.00
2019-01-08T05:30:08.000Z,96.60
2019-01-08T05:32:29.738Z,97.40
2019-01-08T05:34:57.054Z,97.40
2019-01-08T05:37:24.645Z,97.30
2019-01-08T05:39:52.043Z,97.40
2019-01-08T05:42:19.380Z,96.80
2019-01-08T05:44:46.694Z,97.00
2019-01-08T05:47:14.088Z,96.50
2019-01-08T05:49:41.475Z,97.40
2019-01-08T05:52:08.796Z,97.40
2019-01-08T05:54:36.184Z,97.40
2019-01-08T05:57:03.496Z,97.40
2019-01-08T05:59:30.886Z,97.40
2019-01-08T06:01:58.314Z,97.40
2019-01-08T06:04:25.730Z,97.40
2019-01-08T06:06:53.122Z,97.30
2019-01-08T06:09:20.506Z,96.80
2019-01-08T06:11:47.792Z,97.40
2019-01-08T06:14:15.107Z,97.40
2019-01-08T06:16:42.466Z,96.00
2019-01-08T06:19:09.790Z,96.80
2019-01-08T06:21:37.198Z,97.40
2019-01-08T06:24:04.500Z,96.10
2019-01-08T06:26:32.222Z,95.70
2019-01-08T06:28:59.636Z,95.30
2019-01-08T06:31:27.054Z,96.90
2019-01-08T06:33:54.364Z,95.70
2019-01-08T06:36:21.788Z,96.30
2019-01-08T06:38:49.467Z,96.30
2019-01-08T06:41:16.755Z,96.40
2019-01-08T06:43:44.150Z,95.10
2019-01-08T06:46:11.490Z,95.50
2019-01-08T06:48:38.885Z,95.70
2019-01-08T06:51:06.190Z,96.80
2019-01-08T06:53:33.495Z,96.60
2019-01-08T06:56:00.901Z,96.20
2019-01-08T06:58:28.257Z,95.40
2019-01-08T07:00:55.571Z,96.70
2019-01-08T07:03:22.853Z,95.40
2019-01-08T07:05:50.194Z,94.70
2019-01-08T07:08:17.591Z,94.70
2019-01-08T07:10:45.014Z,96.50
2019-01-08T07:13:12.394Z,94.80
2019-01-08T07:15:39.809Z,95.20
2019-01-08T07:18:07.205Z,94.70
2019-01-08T07:20:34.488Z,95.60
2019-01-08T07:23:01.883Z,95.20
2019-01-08T07:25:29.249Z,94.20
2019-01-08T07:27:56.576Z,94.80
2019-01-08T07:30:23.979Z,94.60
2019-01-08T07:32:51.703Z,94.10
2019-01-08T07:35:19.113Z,94.90
2019-01-08T07:37:46.522Z,93.80
2019-01-08T07:40:13.845Z,94.60
2019-01-08T07:42:41.172Z,95.80
2019-01-08T07:45:08.488Z,93.90
2019-01-08T07:47:35.903Z,93.40
2019-01-08T07:50:03.279Z,93.20
2019-01-08T07:52:30.699Z,92.70
2019-01-08T07:54:58.098Z,94.90
2019-01-08T07:57:25.517Z,94.50
2019-01-08T07:59:52.809Z,96.00
2019-01-08T08:02:20.144Z,94.70
2019-01-08T08:04:48.084Z,94.70
2019-01-08T08:07:15.791Z,92.20
2019-01-08T08:09:43.590Z,91.80
2019-01-08T08:12:11.072Z,91.50
2019-01-08T08:14:38.547Z,91.00
2019-01-08T08:17:06.111Z,93.50
2019-01-08T08:19:33.473Z,94.30
2019-01-08T08:22:01.108Z,94.00
2019-01-08T08:24:28.515Z,92.60
2019-01-08T08:26:55.961Z,92.80
2019-01-08T08:29:23.392Z,93.70
2019-01-08T08:31:50.799Z,94.80
2019-01-08T08:34:18.206Z,94.10
2019-01-08T08:36:45.637Z,93.20
2019-01-08T08:39:13.057Z,93.00
2019-01-08T08:41:40.448Z,92.80
2019-01-08T08:44:27.390Z,93.80
2019-01-08T08:46:54.829Z,93.20
2019-01-08T08:49:22.119Z,93.40
2019-01-08T08:51:49.538Z,92.40
2019-01-08T08:54:16.849Z,92.90
2019-01-08T08:56:44.168Z,92.50
2019-01-08T08:59:11.615Z,91.00
2019-01-08T09:01:39.055Z,93.90
2019-01-08T09:04:06.494Z,91.20
2019-01-08T09:06:33.935Z,88.90
2019-01-08T09:09:01.239Z,92.10
2019-01-08T09:11:28.650Z,91.80
2019-01-08T09:13:55.971Z,91.30
2019-01-08T09:16:23.371Z,90.60
2019-01-08T09:18:50.800Z,90.90
2019-01-08T09:21:18.284Z,91.10
2019-01-08T09:23:45.741Z,90.60
2019-01-08T09:26:13.148Z,88.30
2019-01-08T09:28:40.537Z,91.00
2019-01-08T09:31:15.120Z,88.40
2019-01-08T09:33:37.077Z,87.80
2019-01-08T09:36:04.462Z,90.60
2019-01-08T09:38:31.867Z,88.60
2019-01-08T09:40:59.274Z,88.80
2019-01-08T09:43:26.590Z,90.70
2019-01-08T09:45:54.017Z,90.80
2019-01-08T09:48:21.426Z,89.60
2019-01-08T09:50:48.837Z,90.30
2019-01-08T09:53:16.115Z,91.80
2019-01-08T09:55:43.541Z,91.40
2019-01-08T09:58:10.877Z,90.50
2019-01-08T10:00:38.269Z,92.80
2019-01-08T10:03:05.702Z,91.60
2019-01-08T10:05:33.093Z,90.80
2019-01-08T10:08:00.441Z,92.00
2019-01-08T10:10:27.856Z,91.40
2019-01-08T10:12:55.292Z,91.10
2019-01-08T10:15:22.711Z,90.60
2019-01-08T10:17:50.200Z,91.60
2019-01-08T10:20:17.646Z,92.70
2019-01-08T10:22:45.083Z,92.50
2019-01-08T10:25:12.500Z,92.90
2019-01-08T10:27:39.928Z,92.80
2019-01-08T10:30:08.702Z,92.40
2019-01-08T10:32:36.084Z,92.60
2019-01-08T10:35:03.633Z,92.50
2019-01-08T10:37:31.060Z,93.60
2019-01-08T10:39:58.477Z,94.00
2019-01-08T10:42:25.872Z,94.40
2019-01-08T10:44:53.259Z,94.40
2019-01-08T10:47:20.990Z,93.00
2019-01-08T10:49:48.395Z,93.80
2019-01-08T10:52:15.835Z,92.50
2019-01-08T10:54:43.210Z,94.90
2019-01-08T10:57:10.567Z,92.40
2019-01-08T10:59:37.991Z,90.30
2019-01-08T11:02:05.310Z,91.40
2019-01-08T11:04:32.734Z,90.80
2019-01-08T11:07:00.034Z,92.20
2019-01-08T11:09:27.516Z,90.50
2019-01-08T11:11:54.943Z,92.00
2019-01-08T11:14:22.362Z,91.70
2019-01-08T11:16:50.616Z,88.80
2019-01-08T11:19:18.232Z,89.00
2019-01-08T11:21:45.625Z,90.50
2019-01-08T11:24:13.060Z,90.10
2019-01-08T11:26:40.915Z,92.50
2019-01-08T11:29:08.200Z,90.40
2019-01-08T11:31:35.592Z,91.10
2019-01-08T11:34:03.294Z,91.50
2019-01-08T11:36:30.704Z,90.30
2019-01-08T11:38:58.038Z,90.80
2019-01-08T11:41:25.330Z,89.10
2019-01-08T11:43:53.037Z,91.00
2019-01-08T11:46:20.660Z,90.80
2019-01-08T11:48:47.988Z,90.10
2019-01-08T11:51:15.479Z,90.10
2019-01-08T11:53:43.198Z,89.40
2019-01-08T11:56:10.607Z,89.90
2019-01-08T11:58:38.017Z,91.20
2019-01-08T12:01:05.581Z,90.20
2019-01-08T12:03:32.970Z,88.70
2019-01-08T12:06:00.327Z,90.70
2019-01-08T12:08:27.730Z,90.30
2019-01-08T12:10:55.157Z,88.50
2019-01-08T12:13:22.570Z,87.80
2019-01-08T12:15:49.905Z,86.20
2019-01-08T12:18:17.247Z,86.30
2019-01-08T12:20:44.725Z,86.80
2019-01-08T12:23:12.033Z,86.20
2019-01-08T12:25:39.442Z,87.40
2019-01-08T12:28:06.790Z,85.70
2019-01-08T12:30:34.233Z,86.30
2019-01-08T12:33:01.691Z,87.00
2019-01-08T12:35:29.124Z,88.00
2019-01-08T12:37:56.509Z,87.70
2019-01-08T12:40:23.931Z,84.70
2019-01-08T12:42:51.452Z,84.90
2019-01-08T12:45:18.820Z,85.60
2019-01-08T12:47:46.242Z,85.30
2019-01-08T12:50:13.706Z,86.30
2019-01-08T12:52:41.063Z,85.50
2019-01-08T12:55:08.504Z,86.30
2019-01-08T12:57:35.937Z,85.80
2019-01-08T13:00:04.176Z,85.90
2019-01-08T13:02:31.589Z,85.30
2019-01-08T13:04:59.097Z,86.20
2019-01-08T13:07:26.591Z,86.20
2019-01-08T13:09:53.981Z,88.70
2019-01-08T13:12:21.333Z,88.30
2019-01-08T13:14:48.784Z,84.90
2019-01-08T13:17:16.123Z,86.20
2019-01-08T13:19:43.607Z,86.40
2019-01-08T13:22:11.083Z,86.40
2019-01-08T13:24:38.509Z,87.00
2019-01-08T13:27:06.788Z,87.00
2019-01-08T13:29:34.225Z,86.70
2019-01-08T13:32:01.960Z,84.40
2019-01-08T13:34:29.288Z,85.20
2019-01-08T13:36:56.751Z,85.70
2019-01-08T13:39:24.156Z,84.10
2019-01-08T13:41:51.595Z,83.70
2019-01-08T13:44:19.006Z,83.10
2019-01-08T13:46:46.489Z,83.90
2019-01-08T13:49:13.882Z,82.00
2019-01-08T13:51:41.625Z,81.40
2019-01-08T13:54:09.026Z,80.50
2019-01-08T13:56:36.374Z,81.30
2019-01-08T13:59:03.823Z,82.10
2019-01-08T14:01:31.255Z,81.00
2019-01-08T14:03:58.966Z,81.50
2019-01-08T14:06:26.385Z,79.70
2019-01-08T14:08:53.762Z,80.80
2019-01-08T14:11:21.205Z,81.20
2019-01-08T14:13:48.693Z,82.10
2019-01-08T14:16:16.194Z,81.90
2019-01-08T14:18:43.667Z,81.10
2019-01-08T14:21:11.114Z,82.00
2019-01-08T14:23:38.561Z,84.60
2019-01-08T14:26:05.879Z,81.40
2019-01-08T14:28:33.459Z,80.50
2019-01-08T14:31:00.902Z,80.70
2019-01-08T14:33:28.331Z,82.50
2019-01-08T14:35:55.770Z,82.60
2019-01-08T14:38:23.214Z,82.10
2019-01-08T14:40:50.642Z,83.10
2019-01-08T14:43:18.105Z,83.60
2019-01-08T14:45:45.471Z,83.30
2019-01-08T14:48:13.303Z,85.30
2019-01-08T14:50:40.693Z,87.80
2019-01-08T14:53:08.063Z,84.40
2019-01-08T14:55:35.809Z,87.50
2019-01-08T14:58:03.244Z,84.60
2019-01-08T15:00:30.659Z,83.10
2019-01-08T15:02:58.143Z,87.10
2019-01-08T15:05:25.586Z,84.30
2019-01-08T15:07:53.040Z,86.50
2019-01-08T15:10:20.455Z,88.70
2019-01-08T15:12:47.915Z,86.80
2019-01-08T15:15:15.376Z,86.40
2019-01-08T15:17:43.116Z,86.80
2019-01-08T15:20:10.569Z,86.40
2019-01-08T15:22:38.009Z,86.40
2019-01-08T15:25:05.485Z,87.20
2019-01-08T15:27:33.224Z,88.00
2019-01-08T15:30:00.587Z,87.30
2019-01-08T15:32:28.030Z,89.40
2019-01-08T15:34:55.669Z,88.10
2019-01-08T15:37:23.205Z,88.40
2019-01-08T15:39:50.631Z,88.30
2019-01-08T15:42:18.491Z,89.50
2019-01-08T15:44:45.956Z,88.00
2019-01-08T15:47:13.422Z,87.10
2019-01-08T15:49:41.101Z,88.00
2019-01-08T15:52:08.731Z,87.20
2019-01-08T15:54:36.174Z,88.50
2019-01-08T15:57:03.847Z,89.40
2019-01-08T15:59:31.189Z,90.60
2019-01-08T16:01:59.175Z,89.70
2019-01-08T16:04:26.567Z,90.40
2019-01-08T16:06:54.047Z,90.00
2019-01-08T16:09:21.482Z,91.00
2019-01-08T16:11:48.842Z,91.70
2019-01-08T16:14:16.245Z,91.60
2019-01-08T16:16:43.625Z,93.40
2019-01-08T16:19:10.993Z,92.00
2019-01-08T16:21:38.435Z,92.40
2019-01-08T16:24:05.892Z,91.60
2019-01-08T16:26:33.674Z,92.50
2019-01-08T16:29:01.126Z,90.70
2019-01-08T16:31:28.449Z,92.30
2019-01-08T16:33:55.781Z,93.20
2019-01-08T16:36:23.838Z,93.60
2019-01-08T16:38:51.306Z,92.90
2019-01-08T16:41:19.042Z,91.50
2019-01-08T16:43:46.425Z,93.50
2019-01-08T16:46:13.905Z,92.70
2019-01-08T16:48:41.382Z,92.20
2019-01-08T16:51:08.790Z,91.30
2019-01-08T16:53:41.306Z,89.80
2019-01-08T16:56:05.696Z,90.20
2019-01-08T16:58:33.159Z,92.00
2019-01-08T17:01:00.703Z,91.80
2019-01-08T17:03:28.055Z,92.00
2019-01-08T17:05:55.524Z,92.80
2019-01-08T17:08:23.022Z,91.90
2019-01-08T17:10:50.510Z,91.30
2019-01-08T17:13:17.955Z,90.50
2019-01-08T17:15:45.704Z,90.50
2019-01-08T17:18:13.550Z,91.40
2019-01-08T17:20:40.946Z,89.90
2019-01-08T17:23:08.884Z,89.80
2019-01-08T17:25:36.348Z,90.90
2019-01-08T17:28:03.801Z,93.60
2019-01-08T17:30:31.235Z,92.80
2019-01-08T17:32:58.752Z,90.50
2019-01-08T17:35:26.227Z,90.80
2019-01-08T17:37:54.116Z,90.00
2019-01-08T17:40:21.591Z,91.10
2019-01-08T17:42:49.116Z,90.30
2019-01-08T17:45:16.551Z,91.30
2019-01-08T17:47:44.198Z,91.60
2019-01-08T17:50:11.517Z,91.50
2019-01-08T17:52:39.128Z,90.00
2019-01-08T17:55:06.813Z,90.50
2019-01-08T17:57:34.246Z,91.10
2019-01-08T18:00:01.713Z,89.40
2019-01-08T18:02:30.606Z,88.90
2019-01-08T18:04:58.394Z,91.60
2019-01-08T18:07:26.339Z,91.20
2019-01-08T18:09:54.536Z,90.10
2019-01-08T18:12:22.052Z,91.20
2019-01-08T18:14:50.105Z,91.00
2019-01-08T18:17:18.587Z,91.10
2019-01-08T18:19:46.276Z,90.10
2019-01-08T18:22:14.267Z,90.40
2019-01-08T18:24:42.299Z,90.60
2019-01-08T18:27:10.123Z,91.60
2019-01-08T18:29:38.015Z,92.70
2019-01-08T18:32:06.016Z,90.60
2019-01-08T18:34:34.182Z,90.90
2019-01-08T18:37:03.927Z,89.30
2019-01-08T18:39:32.290Z,89.70
2019-01-08T18:42:00.260Z,90.10
2019-01-08T18:44:28.681Z,91.40
2019-01-08T18:46:56.434Z,90.70
2019-01-08T18:49:24.815Z,88.30
2019-01-08T18:51:53.312Z,90.40
2019-01-08T18:54:21.064Z,89.60
2019-01-08T18:56:48.718Z,89.90
2019-01-08T18:59:16.566Z,89.30
2019-01-08T19:01:44.570Z,91.60
2019-01-08T19:04:13.123Z,91.40
2019-01-08T19:06:41.208Z,88.50
2019-01-08T19:09:35.668Z,89.60
2019-01-08T19:12:04.923Z,91.90
2019-01-08T19:14:37.847Z,88.30
2019-01-08T19:17:05.857Z,88.90
2019-01-08T19:19:33.619Z,90.70
2019-01-08T19:22:01.760Z,90.40
2019-01-08T19:24:29.568Z,89.40
2019-01-08T19:26:58.588Z,90.20
2019-01-08T19:29:29.611Z,90.50
2019-01-08T19:31:57.208Z,92.10
2019-01-08T19:34:25.271Z,90.70
2019-01-08T19:36:53.256Z,89.90
2019-01-08T19:39:20.999Z,89.00
2019-01-08T19:41:48.512Z,89.30
2019-01-08T19:44:16.145Z,88.60
2019-01-08T19:46:43.616Z,90.10
2019-01-08T19:49:11.076Z,89.30
2019-01-08T19:51:38.930Z,90.30
2019-01-08T19:54:06.464Z,89.00
2019-01-08T19:56:34.014Z,89.50
2019-01-08T19:59:01.533Z,88.80
2019-01-08T20:01:29.084Z,86.90
2019-01-08T20:03:56.576Z,86.30
2019-01-08T20:06:24.193Z,88.40
2019-01-08T20:08:51.780Z,86.10
2019-01-08T20:11:19.327Z,87.20
2019-01-08T20:13:47.394Z,87.00
2019-01-08T20:16:14.939Z,89.00
2019-01-08T20:18:45.352Z,89.00
2019-01-08T20:21:11.880Z,86.60
2019-01-08T20:23:39.885Z,88.10
2019-01-08T20:26:07.450Z,86.30
2019-01-08T20:28:34.897Z,85.50
2019-01-08T20:31:02.444Z,84.70
2019-01-08T20:33:29.943Z,84.30
2019-01-08T20:35:59.054Z,84.70
2019-01-08T20:38:26.785Z,84.40
2019-01-08T20:40:54.245Z,84.00
2019-01-08T20:43:21.767Z,84.00
2019-01-08T20:45:49.892Z,82.80
2019-01-08T20:48:17.407Z,82.30
2019-01-08T20:50:44.896Z,83.90
2019-01-08T20:53:12.750Z,83.40
2019-01-08T20:55:40.259Z,82.60
2019-01-08T20:58:07.784Z,81.00
2019-01-08T21:00:35.351Z,80.20
2019-01-08T21:03:03.267Z,81.90
2019-01-08T21:05:30.731Z,83.20
2019-01-08T21:07:58.299Z,85.90
2019-01-08T21:10:26.056Z,85.00
2019-01-08T21:12:53.810Z,86.90
2019-01-08T21:15:21.276Z,84.80
2019-01-08T21:17:48.782Z,84.60
2019-01-08T21:20:16.204Z,82.90
2019-01-08T21:22:43.687Z,84.70
2019-01-08T21:25:11.164Z,83.40
2019-01-08T21:27:38.893Z,82.40
2019-01-08T21:30:06.768Z,81.80
2019-01-08T21:32:34.231Z,82.20
2019-01-08T21:35:01.750Z,80.70
2019-01-08T21:37:29.204Z,82.60
2019-01-08T21:39:56.712Z,81.50
2019-01-08T21:42:24.134Z,83.10
2019-01-08T21:44:51.882Z,80.80
2019-01-08T21:47:19.332Z,79.30
2019-01-08T21:49:46.819Z,80.70
2019-01-08T21:52:15.419Z,79.00
2019-01-08T21:54:42.865Z,78.40
2019-01-08T21:57:10.521Z,78.90
2019-01-08T21:59:37.937Z,82.90
2019-01-08T22:02:05.791Z,78.60
2019-01-08T22:04:33.512Z,77.70
2019-01-08T22:07:00.965Z,78.50
2019-01-08T22:09:28.400Z,77.70
2019-01-08T22:11:55.893Z,77.90
2019-01-08T22:14:23.227Z,78.40
2019-01-08T22:16:50.708Z,80.10
2019-01-08T22:19:18.123Z,76.80
2019-01-08T22:21:45.608Z,79.40
2019-01-08T22:24:13.093Z,79.50
2019-01-08T22:26:40.535Z,80.10
2019-01-08T22:29:07.969Z,78.90
2019-01-08T22:31:35.658Z,77.70
2019-01-08T22:34:03.072Z,76.50
2019-01-08T22:36:30.457Z,80.50
2019-01-08T22:38:57.867Z,77.80
2019-01-08T22:41:25.319Z,78.10
2019-01-08T22:43:52.744Z,77.10
2019-01-08T22:46:20.071Z,76.60
2019-01-08T22:48:47.482Z,80.40
2019-01-08T22:51:14.821Z,81.20
2019-01-08T22:53:42.483Z,76.70
2019-01-08T22:56:10.000Z,78.70
2019-01-08T22:58:37.462Z,77.70
2019-01-08T23:01:20.325Z,79.70
2019-01-08T23:03:48.052Z,82.80
2019-01-08T23:06:15.528Z,80.50
2019-01-08T23:08:43.272Z,79.50
2019-01-08T23:11:10.642Z,82.20
2019-01-08T23:13:37.985Z,81.30
2019-01-08T23:16:05.400Z,81.50
2019-01-08T23:18:32.856Z,82.90
2019-01-08T23:21:00.531Z,81.40
2019-01-08T23:23:27.862Z,82.70
2019-01-08T23:25:55.330Z,82.10
2019-01-08T23:28:22.723Z,81.70
2019-01-08T23:30:50.131Z,80.60
2019-01-08T23:33:17.471Z,79.10
2019-01-08T23:35:44.846Z,78.90
2019-01-08T23:38:12.266Z,79.20
2019-01-08T23:40:39.595Z,78.70
2019-01-08T23:43:07.001Z,79.00
2019-01-08T23:45:34.330Z,77.60
2019-01-08T23:48:01.691Z,80.40
2019-01-08T23:50:29.167Z,76.60
2019-01-08T23:53:05.118Z,76.40
2019-01-08T23:55:34.405Z,78.00
2019-01-08T23:58:02.395Z,77.10
